Monte Toledo — CQRA — position and weather

sailwx.info

Track history (hours):
 
Tides and Currents Weather Stations Pressure Air Temp Water Temp Dewpoint Dewpoint Depression Visibility Wind Speed Wind Dir Waves Ship Positions

Monte Toledo

Last reported at 2017-Feb-18 21:17 UTC. Time now 2017-Mar-01 20:14 UTC.
Position N 13°11' W 018°05'.
Warning: this ship's position is 10 days out of date.

Length 274 m; draft 9 m.

Type: Tanker. MMSI: 255740000.

Date/timePositionNaut miles runAvg speedWind from/ knotsBaromVisibWave heightAir tempDewpointWater temp
2017-Feb-18 21:17N 13°11' W 018°05'1012.4
2017-Feb-18 20:29N 13°21' W 018°05'1212.6
2017-Feb-18 19:33N 13°32' W 018°05'2612.7
2017-Feb-18 17:33N 13°58' W 018°05'1313.0
2017-Feb-18 16:33N 14°11' W 018°05'1313.0
2017-Feb-18 15:33N 14°24' W 018°05'1312.9
2017-Feb-18 14:33N 14°37' W 018°05'2712.6
2017-Feb-18 12:25N 15°04' W 018°05'1312.6
2017-Feb-18 11:24N 15°17' W 018°05'1212.5
2017-Feb-18 10:26N 15°29' W 018°05'1213.0
2017-Feb-18 09:33N 15°40' W 018°05'3912.7
2017-Feb-18 06:30N 16°19' W 018°05'  
2017-Feb-15 16:29N 27°45' W 016°35'3911.8
2017-Feb-15 13:13N 28°15' W 016°07'710.7
2017-Feb-15 12:33N 28°22' W 016°07'9 6.7
2017-Feb-15 11:14N 28°30' W 016°11'0 0.1
2017-Feb-15 10:32N 28°30' W 016°11'0 0.0
2017-Feb-15 09:29N 28°29' W 016°11'0 0.0
2017-Feb-15 08:14N 28°29' W 016°11'0 0.0
2017-Feb-15 07:32N 28°29' W 016°11'0 0.0
2017-Feb-15 06:20N 28°29' W 016°11'0 0.1
2017-Feb-15 05:20N 28°29' W 016°11'0 0.1
2017-Feb-15 04:23N 28°29' W 016°11'0 0.0
2017-Feb-15 01:23N 28°29' W 016°11'0 0.1
2017-Feb-15 00:26N 28°29' W 016°11'0 0.3
2017-Feb-14 23:19N 28°29' W 016°11'3 4.4
2017-Feb-14 22:33N 28°28' W 016°08'1212.1
2017-Feb-14 21:33N 28°28' W 015°54'1514.8
2017-Feb-14 20:33N 28°39' W 015°43'1515.0
2017-Feb-14 19:33N 28°50' W 015°30'1515.1
2017-Feb-14 18:33N 29°00' W 015°18'64413.4
2017-Feb-12 18:33N 35°58' W 005°37'1211.7
2017-Feb-12 17:33N 36°03' W 005°23'7 7.2
2017-Feb-12 16:31N 36°10' W 005°25'0 0.1
2017-Feb-12 15:31N 36°10' W 005°25'0 0.0
2017-Feb-12 14:31N 36°10' W 005°25'0 0.0
2017-Feb-12 13:31N 36°10' W 005°25'0 0.0
2017-Feb-12 12:31N 36°10' W 005°25'0 0.0
2017-Feb-12 11:31N 36°10' W 005°25'0 0.0
2017-Feb-12 10:25N 36°10' W 005°25'0 0.0
2017-Feb-12 09:31N 36°10' W 005°25'0 0.1
2017-Feb-12 08:31N 36°10' W 005°25'0 0.0
2017-Feb-12 07:31N 36°10' W 005°25'0 0.0
2017-Feb-12 06:31N 36°10' W 005°25'0 0.1
2017-Feb-12 05:31N 36°10' W 005°25'0 0.1
2017-Feb-12 04:31N 36°10' W 005°25'0 0.0
2017-Feb-12 03:31N 36°10' W 005°25'0 0.1
2017-Feb-12 02:31N 36°10' W 005°25'0 0.0
2017-Feb-12 01:31N 36°10' W 005°25'0 0.1
2017-Feb-12 00:31N 36°10' W 005°25'0 0.0
2017-Feb-11 23:31N 36°10' W 005°25'0 0.0
2017-Feb-11 22:31N 36°10' W 005°25'0 0.0
2017-Feb-11 21:31N 36°10' W 005°25'0 0.0
2017-Feb-11 20:31N 36°10' W 005°25'0 0.0
2017-Feb-11 19:31N 36°10' W 005°25'0 0.0
2017-Feb-11 18:31N 36°10' W 005°25'0 0.2
2017-Feb-11 17:31N 36°10' W 005°25'1 0.6
2017-Feb-11 16:33N 36°10' W 005°25'4 4.4
2017-Feb-11 15:33N 36°05' W 005°23'9 8.6
2017-Feb-11 14:33N 35°58' W 005°28'1312.9
2017-Feb-11 13:31N 35°55' W 005°44'54911.8
2017-Feb-09 15:04N 28°60' W 012°50'911.9
2017-Feb-09 14:21N 28°53' W 012°56'911.8
2017-Feb-09 13:34N 28°45' W 013°02'1312.0
2017-Feb-09 12:27N 28°34' W 013°11'3612.2
2017-Feb-09 09:33N 28°05' W 013°34'1312.2
2017-Feb-09 08:31N 27°55' W 013°42'1212.3
2017-Feb-09 07:33N 27°45' W 013°50'1212.1
2017-Feb-09 06:33N 27°35' W 013°58'  
Track history (hours):
 
Tides and Currents Weather Stations Pressure Air Temp Water Temp Dewpoint Dewpoint Depression Visibility Wind Speed Wind Dir Waves Ship Positions

Monte Toledo

Last reported at 2017-Feb-18 21:17 UTC. Time now 2017-Mar-01 20:14 UTC.
Position N 13°11' W 018°05'.
Warning: this ship's position is 10 days out of date.

Length 274 m; draft 9 m.

Type: Tanker. MMSI: 255740000.

Date/timePositionNaut miles runAvg speedWind from/ knotsBaromVisibWave heightAir tempDewpointWater temp
2017-Feb-18 21:17N 13°11' W 018°05'1012.4
2017-Feb-18 20:29N 13°21' W 018°05'1212.6
2017-Feb-18 19:33N 13°32' W 018°05'2612.7
2017-Feb-18 17:33N 13°58' W 018°05'1313.0
2017-Feb-18 16:33N 14°11' W 018°05'1313.0
2017-Feb-18 15:33N 14°24' W 018°05'1312.9
2017-Feb-18 14:33N 14°37' W 018°05'2712.6
2017-Feb-18 12:25N 15°04' W 018°05'1312.6
2017-Feb-18 11:24N 15°17' W 018°05'1212.5
2017-Feb-18 10:26N 15°29' W 018°05'1213.0
2017-Feb-18 09:33N 15°40' W 018°05'3912.7
2017-Feb-18 06:30N 16°19' W 018°05'  
2017-Feb-15 16:29N 27°45' W 016°35'3911.8
2017-Feb-15 13:13N 28°15' W 016°07'710.7
2017-Feb-15 12:33N 28°22' W 016°07'9 6.7
2017-Feb-15 11:14N 28°30' W 016°11'0 0.1
2017-Feb-15 10:32N 28°30' W 016°11'0 0.0
2017-Feb-15 09:29N 28°29' W 016°11'0 0.0
2017-Feb-15 08:14N 28°29' W 016°11'0 0.0
2017-Feb-15 07:32N 28°29' W 016°11'0 0.0
2017-Feb-15 06:20N 28°29' W 016°11'0 0.1
2017-Feb-15 05:20N 28°29' W 016°11'0 0.1
2017-Feb-15 04:23N 28°29' W 016°11'0 0.0
2017-Feb-15 01:23N 28°29' W 016°11'0 0.1
2017-Feb-15 00:26N 28°29' W 016°11'0 0.3
2017-Feb-14 23:19N 28°29' W 016°11'3 4.4
2017-Feb-14 22:33N 28°28' W 016°08'1212.1
2017-Feb-14 21:33N 28°28' W 015°54'1514.8
2017-Feb-14 20:33N 28°39' W 015°43'1515.0
2017-Feb-14 19:33N 28°50' W 015°30'1515.1
2017-Feb-14 18:33N 29°00' W 015°18'64413.4
2017-Feb-12 18:33N 35°58' W 005°37'1211.7
2017-Feb-12 17:33N 36°03' W 005°23'7 7.2
2017-Feb-12 16:31N 36°10' W 005°25'0 0.1
2017-Feb-12 15:31N 36°10' W 005°25'0 0.0
2017-Feb-12 14:31N 36°10' W 005°25'0 0.0
2017-Feb-12 13:31N 36°10' W 005°25'0 0.0
2017-Feb-12 12:31N 36°10' W 005°25'0 0.0
2017-Feb-12 11:31N 36°10' W 005°25'0 0.0
2017-Feb-12 10:25N 36°10' W 005°25'0 0.0
2017-Feb-12 09:31N 36°10' W 005°25'0 0.1
2017-Feb-12 08:31N 36°10' W 005°25'0 0.0
2017-Feb-12 07:31N 36°10' W 005°25'0 0.0
2017-Feb-12 06:31N 36°10' W 005°25'0 0.1
2017-Feb-12 05:31N 36°10' W 005°25'0 0.1
2017-Feb-12 04:31N 36°10' W 005°25'0 0.0
2017-Feb-12 03:31N 36°10' W 005°25'0 0.1
2017-Feb-12 02:31N 36°10' W 005°25'0 0.0
2017-Feb-12 01:31N 36°10' W 005°25'0 0.1
2017-Feb-12 00:31N 36°10' W 005°25'0 0.0
2017-Feb-11 23:31N 36°10' W 005°25'0 0.0
2017-Feb-11 22:31N 36°10' W 005°25'0 0.0
2017-Feb-11 21:31N 36°10' W 005°25'0 0.0
2017-Feb-11 20:31N 36°10' W 005°25'0 0.0
2017-Feb-11 19:31N 36°10' W 005°25'0 0.0
2017-Feb-11 18:31N 36°10' W 005°25'0 0.2
2017-Feb-11 17:31N 36°10' W 005°25'1 0.6
2017-Feb-11 16:33N 36°10' W 005°25'4 4.4
2017-Feb-11 15:33N 36°05' W 005°23'9 8.6
2017-Feb-11 14:33N 35°58' W 005°28'1312.9
2017-Feb-11 13:31N 35°55' W 005°44'54911.8
2017-Feb-09 15:04N 28°60' W 012°50'911.9
2017-Feb-09 14:21N 28°53' W 012°56'911.8
2017-Feb-09 13:34N 28°45' W 013°02'1312.0
2017-Feb-09 12:27N 28°34' W 013°11'3612.2
2017-Feb-09 09:33N 28°05' W 013°34'1312.2
2017-Feb-09 08:31N 27°55' W 013°42'1212.3
2017-Feb-09 07:33N 27°45' W 013°50'1212.1
2017-Feb-09 06:33N 27°35' W 013°58'  

Dump ship's entire track history